createdAt,value
2023-04-18T00:02:56.015Z,7.50
2023-04-18T00:08:00.368Z,6.50
2023-04-18T00:13:05.655Z,7.00
2023-04-18T00:18:10.704Z,6.80
2023-04-18T00:23:15.245Z,6.90
2023-04-18T00:28:19.284Z,6.70
2023-04-18T00:33:23.489Z,7.30
2023-04-18T00:38:28.884Z,7.10
2023-04-18T00:43:35.361Z,6.60
2023-04-18T00:48:39.876Z,6.90
2023-04-18T00:53:45.276Z,6.50
2023-04-18T00:58:50.020Z,7.20
2023-04-18T01:03:55.382Z,7.30
2023-04-18T01:08:59.826Z,7.20
2023-04-18T01:14:08.855Z,6.90
2023-04-18T01:19:13.211Z,6.80
2023-04-18T01:24:18.352Z,6.70
2023-04-18T01:29:22.304Z,6.90
2023-04-18T01:34:26.620Z,6.30
2023-04-18T01:39:30.982Z,7.00
2023-04-18T01:44:34.718Z,6.70
2023-04-18T01:49:39.964Z,5.90
2023-04-18T01:54:43.818Z,6.90
2023-04-18T01:59:47.819Z,6.50
2023-04-18T02:04:51.841Z,5.50
2023-04-18T02:09:55.896Z,6.80
2023-04-18T02:14:59.748Z,5.70
2023-04-18T02:20:04.504Z,5.80
2023-04-18T02:25:08.972Z,6.10
2023-04-18T02:30:13.304Z,6.20
2023-04-18T02:35:17.175Z,5.60
2023-04-18T02:40:21.219Z,5.50
2023-04-18T02:45:26.495Z,5.20
2023-04-18T02:50:31.246Z,5.30
2023-04-18T02:55:35.460Z,6.10
2023-04-18T03:00:39.927Z,5.80
2023-04-18T03:05:55.089Z,5.40
2023-04-18T03:10:59.430Z,7.50
2023-04-18T03:16:04.651Z,5.10
2023-04-18T03:21:09.234Z,5.80
2023-04-18T03:26:14.223Z,5.20
2023-04-18T03:31:18.755Z,6.30
2023-04-18T03:36:25.722Z,4.80
2023-04-18T03:41:30.695Z,6.00
2023-04-18T03:46:35.581Z,5.30
2023-04-18T03:51:48.066Z,5.60
2023-04-18T03:56:52.394Z,5.10
2023-04-18T04:01:57.435Z,4.70
2023-04-18T04:07:02.183Z,4.70
2023-04-18T04:12:06.847Z,4.80
2023-04-18T04:17:11.185Z,4.90
2023-04-18T04:22:16.658Z,5.40
2023-04-18T04:27:20.798Z,5.80
2023-04-18T04:32:25.707Z,5.30
2023-04-18T04:37:30.606Z,5.30
2023-04-18T04:42:49.454Z,6.10
2023-04-18T04:47:59.152Z,4.80
2023-04-18T04:53:03.164Z,5.20
2023-04-18T04:58:07.402Z,4.80
2023-04-18T05:03:35.517Z,5.60
2023-04-18T05:08:40.834Z,4.60
2023-04-18T05:13:44.977Z,4.50
2023-04-18T05:18:48.898Z,4.80
2023-04-18T05:23:52.830Z,4.80
2023-04-18T05:28:56.877Z,5.10
2023-04-18T05:34:00.993Z,4.20
2023-04-18T05:39:05.034Z,4.80
2023-04-18T05:44:09.700Z,4.20
2023-04-18T05:49:13.504Z,4.60
2023-04-18T05:54:18.928Z,4.60
2023-04-18T05:59:23.009Z,5.10
2023-04-18T06:04:27.171Z,6.40
2023-04-18T06:09:31.182Z,6.10
2023-04-18T06:14:35.307Z,9.50
2023-04-18T06:19:39.967Z,5.20
2023-04-18T06:24:43.829Z,6.70
2023-04-18T06:29:47.710Z,7.10
2023-04-18T06:34:53.293Z,6.10
2023-04-18T06:39:57.224Z,4.80
2023-04-18T06:45:01.338Z,5.60
2023-04-18T06:50:06.943Z,4.90
2023-04-18T06:55:14.641Z,7.20
2023-04-18T07:00:19.218Z,9.90
2023-04-18T07:05:23.206Z,9.20
2023-04-18T07:10:27.145Z,5.60
2023-04-18T07:15:31.161Z,8.20
2023-04-18T07:20:35.161Z,8.80
2023-04-18T07:25:41.060Z,7.60
2023-04-18T07:30:45.757Z,9.10
2023-04-18T07:35:50.770Z,6.60
2023-04-18T07:41:01.878Z,6.90
2023-04-18T07:46:06.760Z,6.10
2023-04-18T07:51:12.077Z,6.50
2023-04-18T07:56:15.912Z,6.30
2023-04-18T08:01:24.332Z,8.20
2023-04-18T08:06:29.150Z,5.50
2023-04-18T08:11:34.469Z,5.40
2023-04-18T08:16:39.822Z,5.50
2023-04-18T08:21:43.969Z,6.70
2023-04-18T08:26:47.988Z,6.50
2023-04-18T08:31:51.960Z,5.50
2023-04-18T08:36:56.038Z,5.30
2023-04-18T08:42:01.918Z,5.80
2023-04-18T08:47:09.088Z,4.90
2023-04-18T08:52:19.882Z,4.80
2023-04-18T08:57:27.272Z,5.10
2023-04-18T09:02:43.054Z,5.20
2023-04-18T09:07:48.566Z,5.10
2023-04-18T09:12:52.719Z,5.00
2023-04-18T09:18:03.371Z,5.40
2023-04-18T09:23:14.990Z,5.60
2023-04-18T09:28:33.740Z,5.40
2023-04-18T09:33:38.747Z,5.20
2023-04-18T09:38:42.671Z,6.10
2023-04-18T09:43:47.530Z,5.20
2023-04-18T09:48:51.561Z,8.60
2023-04-18T09:53:55.685Z,6.80
2023-04-18T09:59:11.994Z,10.00
2023-04-18T10:04:17.115Z,6.70
2023-04-18T10:09:22.825Z,6.80
2023-04-18T10:14:28.446Z,7.40
2023-04-18T10:19:32.418Z,7.20
2023-04-18T10:24:55.306Z,7.10
2023-04-18T10:29:59.117Z,7.20
2023-04-18T10:35:03.471Z,7.20
2023-04-18T10:40:08.297Z,6.40
2023-04-18T10:45:22.730Z,7.00
2023-04-18T10:50:26.818Z,6.70
2023-04-18T10:55:31.860Z,7.50
2023-04-18T11:00:35.946Z,7.00
2023-04-18T11:05:40.049Z,6.70
2023-04-18T11:10:58.169Z,7.60
2023-04-18T11:16:02.742Z,7.30
2023-04-18T11:21:06.666Z,6.60
2023-04-18T11:26:13.129Z,6.30
2023-04-18T11:31:16.983Z,6.70
2023-04-18T11:36:21.512Z,7.40
2023-04-18T11:41:25.353Z,7.60
2023-04-18T11:46:39.198Z,8.90
2023-04-18T11:51:46.760Z,9.70
2023-04-18T11:56:50.737Z,8.20
2023-04-18T12:02:15.624Z,8.30
2023-04-18T12:07:50.496Z,8.40
2023-04-18T12:12:57.818Z,8.60
2023-04-18T12:18:04.229Z,8.30
2023-04-18T12:23:08.834Z,8.40
2023-04-18T12:28:16.859Z,8.40
2023-04-18T12:33:20.892Z,8.90
2023-04-18T12:38:25.426Z,8.50
2023-04-18T12:43:29.279Z,8.80
2023-04-18T12:48:33.222Z,8.50
2023-04-18T12:54:08.554Z,8.30
2023-04-18T12:59:12.843Z,8.50
2023-04-18T13:04:17.317Z,7.80
2023-04-18T13:09:21.763Z,9.10
2023-04-18T13:14:25.680Z,8.20
2023-04-18T13:19:29.833Z,8.60
2023-04-18T13:24:33.787Z,9.70
2023-04-18T13:29:40.337Z,9.50
2023-04-18T13:34:47.708Z,8.50
2023-04-18T13:39:51.815Z,9.50
2023-04-18T13:44:55.921Z,9.10
2023-04-18T13:49:59.873Z,9.10
2023-04-18T13:55:04.421Z,8.90
2023-04-18T14:00:09.593Z,9.20
2023-04-18T14:05:16.657Z,8.90
2023-04-18T14:10:22.020Z,9.10
2023-04-18T14:15:26.363Z,10.30
2023-04-18T14:20:34.913Z,8.90
2023-04-18T14:25:38.829Z,9.00
2023-04-18T14:30:42.746Z,9.00
2023-04-18T14:35:46.789Z,9.30
2023-04-18T14:40:50.810Z,9.10
2023-04-18T14:45:54.644Z,8.60
2023-04-18T14:51:00.150Z,8.60
2023-04-18T14:56:04.761Z,10.30
2023-04-18T15:01:08.906Z,8.90
2023-04-18T15:06:13.043Z,12.40
2023-04-18T15:11:17.053Z,9.10
2023-04-18T15:16:21.252Z,9.30
2023-04-18T15:21:25.341Z,12.50
2023-04-18T15:26:32.341Z,9.10
2023-04-18T15:31:39.048Z,9.50
2023-04-18T15:36:43.673Z,9.50
2023-04-18T15:41:47.724Z,13.50
2023-04-18T15:46:52.171Z,14.70
2023-04-18T15:51:57.141Z,10.60
2023-04-18T15:57:00.955Z,14.00
2023-04-18T16:02:07.153Z,24.70
2023-04-18T16:07:12.286Z,27.60
2023-04-18T16:12:16.219Z,23.70
2023-04-18T16:17:20.239Z,17.00
2023-04-18T16:22:24.265Z,19.30
2023-04-18T16:27:28.715Z,21.10
2023-04-18T16:32:34.038Z,17.20
2023-04-18T16:37:39.854Z,22.90
2023-04-18T16:42:43.788Z,16.30
2023-04-18T16:47:48.673Z,17.40
2023-04-18T16:52:52.666Z,19.60
2023-04-18T16:57:57.229Z,20.80
2023-04-18T17:03:02.239Z,20.50
2023-04-18T17:08:07.647Z,18.00
2023-04-18T17:13:12.078Z,16.50
2023-04-18T17:18:16.617Z,20.10
2023-04-18T17:23:21.410Z,20.90
2023-04-18T17:28:27.138Z,20.80
2023-04-18T17:33:32.949Z,18.80
2023-04-18T17:38:38.597Z,20.50
2023-04-18T17:43:46.116Z,18.70
2023-04-18T17:48:51.562Z,17.00
2023-04-18T17:53:59.292Z,19.70
2023-04-18T17:59:08.192Z,21.10
2023-04-18T18:04:14.299Z,15.80
2023-04-18T18:09:20.591Z,19.50
2023-04-18T18:14:31.800Z,20.50
2023-04-18T18:19:37.766Z,16.60
2023-04-18T18:24:44.398Z,17.80
2023-04-18T18:29:52.433Z,15.60
2023-04-18T18:34:59.266Z,15.90
2023-04-18T18:40:10.521Z,17.00
2023-04-18T18:45:16.444Z,15.00
2023-04-18T18:50:22.188Z,13.40
2023-04-18T18:55:27.575Z,15.00
2023-04-18T19:00:32.765Z,14.60
2023-04-18T19:05:39.721Z,14.20
2023-04-18T19:10:49.720Z,16.50
2023-04-18T19:15:56.580Z,13.60
2023-04-18T19:21:03.602Z,13.60
2023-04-18T19:26:11.970Z,13.20
2023-04-18T19:31:20.111Z,17.20
2023-04-18T19:36:26.560Z,12.70
2023-04-18T19:41:33.260Z,15.60
2023-04-18T19:46:39.336Z,13.60
2023-04-18T19:51:45.140Z,22.10
2023-04-18T19:56:53.090Z,14.90
2023-04-18T20:02:06.687Z,18.10
2023-04-18T20:07:12.736Z,14.40
2023-04-18T20:12:18.425Z,15.80
2023-04-18T20:17:24.854Z,14.30
2023-04-18T20:22:34.154Z,13.50
2023-04-18T20:27:39.411Z,14.50
2023-04-18T20:32:44.317Z,16.10
2023-04-18T20:37:53.412Z,18.70
2023-04-18T20:42:59.088Z,15.70
2023-04-18T20:48:04.448Z,14.90
2023-04-18T20:53:08.573Z,14.50
2023-04-18T20:58:12.808Z,13.90
2023-04-18T21:03:17.662Z,10.90
2023-04-18T21:08:22.743Z,11.70
2023-04-18T21:13:26.882Z,11.00
2023-04-18T21:18:31.107Z,12.50
2023-04-18T21:23:41.987Z,15.80
2023-04-18T21:28:58.856Z,10.80
2023-04-18T21:34:04.818Z,16.50
2023-04-18T21:39:08.693Z,11.50
2023-04-18T21:44:13.478Z,9.60
2023-04-18T21:49:17.605Z,9.80
2023-04-18T21:54:21.639Z,12.40
2023-04-18T21:59:25.774Z,10.50
2023-04-18T22:04:29.645Z,11.80
2023-04-18T22:09:36.674Z,11.00
2023-04-18T22:14:42.460Z,12.60
2023-04-18T22:19:48.550Z,16.70
2023-04-18T22:24:52.700Z,13.80
2023-04-18T22:29:56.830Z,12.00
2023-04-18T22:35:00.750Z,10.40
2023-04-18T22:40:08.996Z,12.40
2023-04-18T22:45:13.916Z,9.80
2023-04-18T22:50:17.880Z,11.40
2023-04-18T22:55:22.062Z,11.30
2023-04-18T23:00:26.340Z,11.10
2023-04-18T23:05:30.611Z,10.80
2023-04-18T23:10:34.913Z,9.40
2023-04-18T23:15:38.762Z,11.40
2023-04-18T23:20:42.903Z,9.90
2023-04-18T23:25:46.918Z,9.30
2023-04-18T23:30:50.957Z,9.20
2023-04-18T23:35:54.887Z,14.50
2023-04-18T23:40:58.920Z,8.50
2023-04-18T23:46:03.138Z,11.60
2023-04-18T23:51:07.178Z,9.00
2023-04-18T23:56:11.209Z,8.20
